createdAt,value
2022-08-16T00:01:33.875Z,6.50
2022-08-16T00:04:05.062Z,5.70
2022-08-16T00:06:32.543Z,8.40
2022-08-16T00:08:59.659Z,6.20
2022-08-16T00:11:26.669Z,6.70
2022-08-16T00:13:55.736Z,7.00
2022-08-16T00:17:00.905Z,8.10
2022-08-16T00:19:28.321Z,7.40
2022-08-16T00:22:01.708Z,7.00
2022-08-16T00:24:34.636Z,7.00
2022-08-16T00:27:03.518Z,7.60
2022-08-16T00:29:32.714Z,7.20
2022-08-16T00:32:06.714Z,6.70
2022-08-16T00:34:44.550Z,8.10
2022-08-16T00:37:57.146Z,9.90
2022-08-16T00:40:33.403Z,7.40
2022-08-16T00:43:24.067Z,5.80
2022-08-16T00:46:32.825Z,7.50
2022-08-16T00:48:52.447Z,6.60
2022-08-16T00:51:23.871Z,8.10
2022-08-16T00:53:54.688Z,5.70
2022-08-16T00:56:57.113Z,6.70
2022-08-16T00:59:29.062Z,6.20
2022-08-16T01:01:56.574Z,6.40
2022-08-16T01:04:30.937Z,5.50
2022-08-16T01:07:02.180Z,10.30
2022-08-16T01:09:34.496Z,6.00
2022-08-16T01:12:10.612Z,6.90
2022-08-16T01:14:50.558Z,5.70
2022-08-16T01:17:36.835Z,6.60
2022-08-16T01:20:23.675Z,5.80
2022-08-16T01:24:00.835Z,7.10
2022-08-16T01:26:34.420Z,7.20
2022-08-16T01:29:14.066Z,7.60
2022-08-16T01:31:42.501Z,7.00
2022-08-16T01:34:22.813Z,7.20
2022-08-16T01:37:07.898Z,7.70
2022-08-16T01:39:36.678Z,7.70
2022-08-16T01:42:13.153Z,7.00
2022-08-16T01:44:41.979Z,5.70
2022-08-16T01:47:13.291Z,6.80
2022-08-16T01:50:40.971Z,6.60
2022-08-16T01:52:36.551Z,8.60
2022-08-16T01:55:35.927Z,7.10
2022-08-16T01:58:17.083Z,7.30
2022-08-16T02:00:48.816Z,6.70
2022-08-16T02:03:16.504Z,7.10
2022-08-16T02:05:52.589Z,8.10
2022-08-16T02:08:32.984Z,5.70
2022-08-16T02:11:08.591Z,7.10
2022-08-16T02:13:41.867Z,6.50
2022-08-16T02:16:18.401Z,6.90
2022-08-16T02:18:48.203Z,7.50
2022-08-16T02:21:17.305Z,6.10
2022-08-16T02:23:59.184Z,6.10
2022-08-16T02:26:26.738Z,6.80
2022-08-16T02:28:54.276Z,6.70
2022-08-16T02:31:21.512Z,6.00
2022-08-16T02:34:10.741Z,9.70
2022-08-16T02:36:48.293Z,6.20
2022-08-16T02:39:19.397Z,6.50
2022-08-16T02:41:53.606Z,6.30
2022-08-16T02:44:26.909Z,6.50
2022-08-16T02:46:55.606Z,6.40
2022-08-16T02:49:58.348Z,6.90
2022-08-16T02:52:17.370Z,6.90
2022-08-16T02:54:58.993Z,7.70
2022-08-16T02:57:27.033Z,7.10
2022-08-16T02:59:55.398Z,7.30
2022-08-16T03:02:31.969Z,8.50
2022-08-16T03:05:09.467Z,7.40
2022-08-16T03:07:38.569Z,9.20
2022-08-16T03:10:09.912Z,8.40
2022-08-16T03:12:56.282Z,7.20
2022-08-16T03:15:26.390Z,7.70
2022-08-16T03:17:58.101Z,6.20
2022-08-16T03:20:32.310Z,7.00
2022-08-16T03:23:02.689Z,7.80
2022-08-16T03:25:40.795Z,7.60
2022-08-16T03:28:11.778Z,7.20
2022-08-16T03:30:38.975Z,6.50
2022-08-16T03:33:07.585Z,10.40
2022-08-16T03:35:41.444Z,8.50
2022-08-16T03:38:32.772Z,7.80
2022-08-16T03:41:17.054Z,7.00
2022-08-16T03:43:56.038Z,6.70
2022-08-16T03:46:45.065Z,7.10
2022-08-16T03:49:13.620Z,6.80
2022-08-16T03:51:44.423Z,7.30
2022-08-16T03:54:18.046Z,6.80
2022-08-16T03:56:56.996Z,8.00
2022-08-16T03:59:33.230Z,6.40
2022-08-16T04:02:22.059Z,10.00
2022-08-16T04:04:54.123Z,6.70
2022-08-16T04:07:22.688Z,5.50
2022-08-16T04:09:52.479Z,7.00
2022-08-16T04:12:52.404Z,6.30
2022-08-16T04:15:11.164Z,9.40
2022-08-16T04:17:46.513Z,7.80
2022-08-16T04:20:31.637Z,7.70
2022-08-16T04:23:03.934Z,8.80
2022-08-16T04:25:34.769Z,6.50
2022-08-16T04:28:51.438Z,8.20
2022-08-16T04:30:50.502Z,7.90
2022-08-16T04:33:27.063Z,6.50
2022-08-16T04:35:58.645Z,6.90
2022-08-16T04:38:25.862Z,8.80
2022-08-16T04:40:54.334Z,8.30
2022-08-16T04:43:21.352Z,6.20
2022-08-16T04:46:00.219Z,7.30
2022-08-16T04:48:28.443Z,9.50
2022-08-16T04:51:11.625Z,7.20
2022-08-16T04:53:49.717Z,7.90
2022-08-16T04:56:20.747Z,7.40
2022-08-16T04:58:50.396Z,8.20
2022-08-16T05:01:18.939Z,8.90
2022-08-16T05:04:00.275Z,7.00
2022-08-16T05:06:44.849Z,7.60
2022-08-16T05:09:22.934Z,7.50
2022-08-16T05:11:50.974Z,6.50
2022-08-16T05:14:20.348Z,7.70
2022-08-16T05:17:04.795Z,8.70
2022-08-16T05:19:35.852Z,8.20
2022-08-16T05:22:17.500Z,6.90
2022-08-16T05:24:49.515Z,9.30
2022-08-16T05:27:23.128Z,6.80
2022-08-16T05:30:00.678Z,9.20
2022-08-16T05:32:36.634Z,7.70
2022-08-16T05:35:16.030Z,6.80
2022-08-16T05:38:04.483Z,8.20
2022-08-16T05:40:57.219Z,6.30
2022-08-16T05:43:28.753Z,7.20
2022-08-16T05:46:00.647Z,7.00
2022-08-16T05:48:27.568Z,6.50
2022-08-16T05:51:02.108Z,8.00
2022-08-16T05:53:29.496Z,8.10
2022-08-16T05:56:19.301Z,8.00
2022-08-16T05:58:47.084Z,7.90
2022-08-16T06:01:15.001Z,6.80
2022-08-16T06:03:44.086Z,6.20
2022-08-16T06:06:27.950Z,8.60
2022-08-16T06:08:56.621Z,8.30
2022-08-16T06:11:25.593Z,6.60
2022-08-16T06:13:57.199Z,7.40
2022-08-16T06:16:35.063Z,6.00
2022-08-16T06:19:04.692Z,6.70
2022-08-16T06:21:36.723Z,7.00
2022-08-16T06:24:54.309Z,7.80
2022-08-16T06:26:58.036Z,8.90
2022-08-16T06:29:28.564Z,6.60
2022-08-16T06:31:55.350Z,7.70
2022-08-16T06:34:53.241Z,7.40
2022-08-16T06:37:11.623Z,10.50
2022-08-16T06:39:49.173Z,7.20
2022-08-16T06:42:47.723Z,7.40
2022-08-16T06:45:43.493Z,6.60
2022-08-16T06:48:32.952Z,8.70
2022-08-16T06:53:38.801Z,6.10
2022-08-16T06:56:14.495Z,9.00
2022-08-16T06:59:11.695Z,7.50
2022-08-16T07:01:54.307Z,7.80
2022-08-16T07:04:31.587Z,9.70
2022-08-16T07:07:02.922Z,6.50
2022-08-16T07:09:30.655Z,6.80
2022-08-16T07:12:03.136Z,7.90
2022-08-16T07:14:33.940Z,8.60
2022-08-16T07:17:07.865Z,8.80
2022-08-16T07:20:03.234Z,7.50
2022-08-16T07:22:36.744Z,8.50
2022-08-16T07:25:22.812Z,8.50
2022-08-16T07:27:50.533Z,7.70
2022-08-16T07:30:39.926Z,7.50
2022-08-16T07:33:10.262Z,7.50
2022-08-16T07:35:44.359Z,8.10
2022-08-16T07:38:13.542Z,7.60
2022-08-16T07:41:00.237Z,8.60
2022-08-16T07:43:28.994Z,6.80
2022-08-16T07:46:01.383Z,7.40
2022-08-16T07:48:29.051Z,7.50
2022-08-16T07:50:59.262Z,6.70
2022-08-16T07:53:34.173Z,8.00
2022-08-16T07:56:10.797Z,7.10
2022-08-16T07:58:38.743Z,7.30
2022-08-16T08:01:12.636Z,8.00
2022-08-16T08:03:49.136Z,9.10
2022-08-16T08:06:25.346Z,6.80
2022-08-16T08:08:56.987Z,12.60
2022-08-16T08:11:28.068Z,9.30
2022-08-16T08:14:03.647Z,8.50
2022-08-16T08:16:33.717Z,9.20
2022-08-16T08:19:03.765Z,8.10
2022-08-16T08:21:59.138Z,7.70
2022-08-16T08:24:31.973Z,8.70
2022-08-16T08:27:03.873Z,7.60
2022-08-16T08:29:37.097Z,7.30
2022-08-16T08:32:57.087Z,8.60
2022-08-16T08:35:03.629Z,7.90
2022-08-16T08:37:53.924Z,6.20
2022-08-16T08:40:27.334Z,9.20
2022-08-16T08:43:11.538Z,8.70
2022-08-16T08:45:48.103Z,9.00
2022-08-16T08:48:34.219Z,7.60
2022-08-16T08:51:10.362Z,8.70
2022-08-16T08:53:47.289Z,8.20
2022-08-16T08:56:30.064Z,8.50
2022-08-16T08:59:13.042Z,9.20
2022-08-16T09:01:56.208Z,9.40
2022-08-16T09:04:27.158Z,8.30
2022-08-16T09:06:55.918Z,10.20
2022-08-16T09:09:26.156Z,9.00
2022-08-16T09:12:06.372Z,7.40
2022-08-16T09:14:49.381Z,9.20
2022-08-16T09:17:47.160Z,10.60
2022-08-16T09:20:14.437Z,8.40
2022-08-16T09:22:44.172Z,8.40
2022-08-16T09:25:25.827Z,10.80
2022-08-16T09:27:57.666Z,8.50
2022-08-16T09:30:43.372Z,8.20
2022-08-16T09:33:18.508Z,8.40
2022-08-16T09:35:53.300Z,7.40
2022-08-16T09:38:32.112Z,7.10
2022-08-16T09:41:02.143Z,8.20
2022-08-16T09:43:58.137Z,8.60
2022-08-16T09:46:48.138Z,8.10
2022-08-16T09:49:04.334Z,6.80
2022-08-16T09:51:36.774Z,6.50
2022-08-16T09:54:06.293Z,8.20
2022-08-16T09:56:39.693Z,10.10
2022-08-16T09:59:25.182Z,8.20
2022-08-16T10:01:54.503Z,7.40
2022-08-16T10:04:31.790Z,8.80
2022-08-16T10:07:03.096Z,7.00
2022-08-16T10:09:53.732Z,7.80
2022-08-16T10:12:55.869Z,8.20
2022-08-16T10:15:30.245Z,10.20
2022-08-16T10:18:00.151Z,8.10
2022-08-16T10:20:34.991Z,8.70
2022-08-16T10:23:07.371Z,7.80
2022-08-16T10:27:22.006Z,11.30
2022-08-16T10:28:32.424Z,7.00
2022-08-16T10:31:08.850Z,9.80
2022-08-16T10:33:41.292Z,7.30
2022-08-16T10:36:09.254Z,9.90
2022-08-16T10:38:42.099Z,7.80
2022-08-16T10:41:11.580Z,7.80
2022-08-16T10:43:43.645Z,8.90
2022-08-16T10:46:39.052Z,7.70
2022-08-16T10:49:05.222Z,8.30
2022-08-16T10:51:34.320Z,8.80
2022-08-16T10:54:28.579Z,7.20
2022-08-16T10:57:00.098Z,8.80
2022-08-16T10:59:44.007Z,8.20
2022-08-16T11:02:57.955Z,8.70
2022-08-16T11:05:12.570Z,8.40
2022-08-16T11:07:55.041Z,7.00
2022-08-16T11:17:02.114Z,8.50
2022-08-16T11:19:04.099Z,6.90
2022-08-16T11:21:34.023Z,8.00
2022-08-16T11:24:02.127Z,8.00
2022-08-16T11:26:29.837Z,8.50
2022-08-16T11:29:14.470Z,9.10
2022-08-16T11:31:45.667Z,8.10
2022-08-16T11:34:21.161Z,5.50
2022-08-16T11:36:53.974Z,9.40
2022-08-16T11:39:30.767Z,5.90
2022-08-16T11:41:58.736Z,6.70
2022-08-16T11:44:56.221Z,7.50
2022-08-16T11:47:12.824Z,7.30
2022-08-16T11:49:39.684Z,7.40
2022-08-16T11:52:07.487Z,9.80
2022-08-16T11:54:36.704Z,8.20
2022-08-16T11:57:09.295Z,9.60
2022-08-16T11:59:39.835Z,6.90
2022-08-16T12:02:32.668Z,6.80
2022-08-16T12:04:57.386Z,6.50
2022-08-16T12:07:24.429Z,8.80
2022-08-16T12:09:53.915Z,6.90
2022-08-16T12:12:23.464Z,9.20
2022-08-16T12:14:59.472Z,6.90
2022-08-16T12:17:32.048Z,5.90
2022-08-16T12:20:01.683Z,8.30
2022-08-16T12:22:29.274Z,7.30
2022-08-16T12:24:57.029Z,9.00
2022-08-16T12:27:26.368Z,8.10
2022-08-16T12:29:55.006Z,7.40
2022-08-16T12:32:41.578Z,7.80
2022-08-16T12:35:15.137Z,6.10
2022-08-16T12:37:46.261Z,6.70
2022-08-16T12:40:24.665Z,5.80
2022-08-16T12:42:58.434Z,7.10
2022-08-16T12:45:29.489Z,7.50
2022-08-16T12:48:33.594Z,7.00
2022-08-16T12:51:19.947Z,7.60
2022-08-16T12:53:55.794Z,7.20
2022-08-16T12:56:29.124Z,7.80
2022-08-16T12:58:59.527Z,7.40
2022-08-16T13:01:31.833Z,9.30
2022-08-16T13:04:12.367Z,9.60
2022-08-16T13:06:52.587Z,7.40
2022-08-16T13:09:26.449Z,6.00
2022-08-16T13:12:07.498Z,6.20
2022-08-16T13:14:41.570Z,6.50
2022-08-16T13:17:18.629Z,7.70
2022-08-16T13:20:09.256Z,7.90
2022-08-16T13:25:20.796Z,8.20
2022-08-16T13:28:02.746Z,7.00
2022-08-16T13:30:41.775Z,8.60
2022-08-16T13:33:17.032Z,8.20
2022-08-16T13:35:55.730Z,7.60
2022-08-16T13:38:31.495Z,8.60
2022-08-16T13:41:09.006Z,8.10
2022-08-16T13:43:38.352Z,7.30
2022-08-16T13:46:06.817Z,8.70
2022-08-16T13:48:42.800Z,8.70
2022-08-16T13:51:20.374Z,8.50
2022-08-16T13:53:54.933Z,8.00
2022-08-16T13:56:37.267Z,6.90
2022-08-16T13:59:13.916Z,7.90
2022-08-16T14:01:43.644Z,8.30
2022-08-16T14:04:18.969Z,8.50
2022-08-16T14:06:54.902Z,8.20
2022-08-16T14:09:21.895Z,7.40
2022-08-16T14:11:49.585Z,8.10
2022-08-16T14:14:29.325Z,10.10
2022-08-16T14:17:02.306Z,8.30
2022-08-16T14:19:31.204Z,11.80
2022-08-16T14:22:13.382Z,7.40
2022-08-16T14:24:45.071Z,6.90
2022-08-16T14:27:21.344Z,7.10
2022-08-16T14:29:51.212Z,6.90
2022-08-16T14:32:34.044Z,8.30
2022-08-16T14:35:36.307Z,9.10
2022-08-16T14:38:13.511Z,10.30
2022-08-16T14:40:52.709Z,9.60
2022-08-16T14:43:22.720Z,9.90
2022-08-16T14:45:50.379Z,9.20
2022-08-16T14:48:25.186Z,9.70
2022-08-16T14:50:55.209Z,7.70
2022-08-16T14:53:23.800Z,9.50
2022-08-16T14:55:50.818Z,7.90
2022-08-16T14:58:20.213Z,9.80
2022-08-16T15:01:02.181Z,8.00
2022-08-16T15:03:30.229Z,7.90
2022-08-16T15:06:01.692Z,7.60
2022-08-16T15:08:37.214Z,7.40
2022-08-16T15:11:07.755Z,9.70
2022-08-16T15:13:35.451Z,8.60
2022-08-16T15:16:03.777Z,7.60
2022-08-16T15:18:32.594Z,8.10
2022-08-16T15:21:04.820Z,9.10
2022-08-16T15:23:34.030Z,8.50
2022-08-16T15:26:04.229Z,8.40
2022-08-16T15:28:38.344Z,7.60
2022-08-16T15:31:13.051Z,7.50
2022-08-16T15:33:50.060Z,7.80
2022-08-16T15:36:21.343Z,8.40
2022-08-16T15:38:55.807Z,9.10
2022-08-16T15:41:44.269Z,8.20
2022-08-16T15:44:22.863Z,7.70
2022-08-16T15:47:00.792Z,8.50
2022-08-16T15:49:37.177Z,8.30
2022-08-16T15:52:24.847Z,8.90
2022-08-16T15:54:57.359Z,10.50
2022-08-16T15:57:27.674Z,8.10
2022-08-16T15:59:57.762Z,9.80
2022-08-16T16:02:39.134Z,8.10
2022-08-16T16:05:09.577Z,8.70
2022-08-16T16:07:55.426Z,7.40
2022-08-16T16:10:29.273Z,9.30
2022-08-16T16:13:01.693Z,7.00
2022-08-16T16:15:35.706Z,11.00
2022-08-16T16:18:09.390Z,9.60
2022-08-16T16:20:48.094Z,12.80
2022-08-16T16:23:23.404Z,7.20
2022-08-16T16:25:51.815Z,7.70
2022-08-16T16:29:08.693Z,7.40
2022-08-16T16:31:15.284Z,7.20
2022-08-16T16:33:47.952Z,9.40
2022-08-16T16:36:23.233Z,7.70
2022-08-16T16:38:54.533Z,7.80
2022-08-16T16:41:25.479Z,8.40
2022-08-16T16:43:56.034Z,8.10
2022-08-16T16:46:40.162Z,8.10
2022-08-16T16:49:11.714Z,9.60
2022-08-16T16:51:44.514Z,7.00
2022-08-16T16:54:13.270Z,7.80
2022-08-16T16:56:49.998Z,8.60
2022-08-16T16:59:18.834Z,7.80
2022-08-16T17:01:59.841Z,8.40
2022-08-16T17:04:36.834Z,8.80
2022-08-16T17:07:10.842Z,9.30
2022-08-16T17:09:41.092Z,9.10
2022-08-16T17:12:22.705Z,9.50
2022-08-16T17:14:56.470Z,8.20
2022-08-16T17:17:24.180Z,13.10
2022-08-16T17:19:51.986Z,9.10
2022-08-16T17:22:23.250Z,12.80
2022-08-16T17:24:53.256Z,9.10
2022-08-16T17:27:32.988Z,10.70
2022-08-16T17:30:16.725Z,10.50
2022-08-16T17:32:50.637Z,11.20
2022-08-16T17:35:34.040Z,11.30
2022-08-16T17:38:08.631Z,9.30
2022-08-16T17:40:49.459Z,11.00
2022-08-16T17:43:34.137Z,9.00
2022-08-16T17:46:51.082Z,8.60
2022-08-16T17:48:56.514Z,8.10
2022-08-16T17:51:23.450Z,8.00
2022-08-16T17:53:50.877Z,8.90
2022-08-16T17:56:17.642Z,9.90
2022-08-16T17:58:45.198Z,10.40
2022-08-16T18:01:13.264Z,12.90
2022-08-16T18:04:07.445Z,10.80
2022-08-16T18:06:29.038Z,10.80
2022-08-16T18:09:02.608Z,10.00
2022-08-16T18:11:35.432Z,10.70
2022-08-16T18:14:02.491Z,12.90
2022-08-16T18:16:29.378Z,15.50
2022-08-16T18:18:56.331Z,14.70
2022-08-16T18:21:42.308Z,13.60
2022-08-16T18:24:11.975Z,12.40
2022-08-16T18:26:39.768Z,14.00
2022-08-16T18:29:07.623Z,10.50
2022-08-16T18:31:34.726Z,12.70
2022-08-16T18:34:01.592Z,11.60
2022-08-16T18:36:28.891Z,10.30
2022-08-16T18:38:55.771Z,8.90
2022-08-16T18:41:26.337Z,9.20
2022-08-16T18:44:23.136Z,8.70
2022-08-16T18:46:45.868Z,9.10
2022-08-16T18:49:19.247Z,8.40
2022-08-16T18:51:46.879Z,9.60
2022-08-16T18:54:18.266Z,10.00
2022-08-16T18:56:56.372Z,8.00
2022-08-16T18:59:27.744Z,18.70
2022-08-16T19:02:00.175Z,14.30
2022-08-16T19:04:56.257Z,13.60
2022-08-16T19:07:21.822Z,13.80
2022-08-16T19:09:48.769Z,14.90
2022-08-16T19:12:15.878Z,13.20
2022-08-16T19:14:45.544Z,11.30
2022-08-16T19:17:12.476Z,11.10
2022-08-16T19:19:39.254Z,9.40
2022-08-16T19:22:06.596Z,11.10
2022-08-16T19:24:33.490Z,13.50
2022-08-16T19:27:01.611Z,9.90
2022-08-16T19:29:29.214Z,12.30
2022-08-16T19:31:56.011Z,12.90
2022-08-16T19:34:22.749Z,13.10
2022-08-16T19:36:49.596Z,15.40
2022-08-16T19:39:17.680Z,13.60
2022-08-16T19:41:50.425Z,9.60
2022-08-16T19:44:22.882Z,7.90
2022-08-16T19:46:50.982Z,10.30
2022-08-16T19:49:17.967Z,10.40
2022-08-16T19:51:46.986Z,9.40
2022-08-16T19:54:14.548Z,11.20
2022-08-16T19:56:41.339Z,10.10
2022-08-16T19:59:39.747Z,9.30
2022-08-16T20:01:54.967Z,9.20
2022-08-16T20:04:23.819Z,10.40
2022-08-16T20:06:52.898Z,10.60
2022-08-16T20:09:22.159Z,9.20
2022-08-16T20:11:52.371Z,11.80
2022-08-16T20:14:25.714Z,12.00
2022-08-16T20:16:56.932Z,10.40
2022-08-16T20:19:27.445Z,11.30
2022-08-16T20:21:56.491Z,9.60
2022-08-16T20:24:35.284Z,8.60
2022-08-16T20:27:07.308Z,13.40
2022-08-16T20:29:36.698Z,9.50
2022-08-16T20:32:11.457Z,9.70
2022-08-16T20:34:41.530Z,9.40
2022-08-16T20:37:12.663Z,9.80
2022-08-16T20:39:44.280Z,10.20
2022-08-16T20:42:18.628Z,8.80
2022-08-16T20:44:45.731Z,9.60
2022-08-16T20:47:13.288Z,11.30
2022-08-16T20:49:40.244Z,11.40
2022-08-16T20:52:11.051Z,9.00
2022-08-16T20:54:38.867Z,10.90
2022-08-16T20:57:06.866Z,10.60
2022-08-16T20:59:34.737Z,10.70
2022-08-16T21:02:02.010Z,11.40
2022-08-16T21:04:29.837Z,12.90
2022-08-16T21:06:58.555Z,11.20
2022-08-16T21:09:31.348Z,12.50
2022-08-16T21:12:01.894Z,9.90
2022-08-16T21:14:33.865Z,10.50
2022-08-16T21:17:08.486Z,11.40
2022-08-16T21:19:35.708Z,12.90
2022-08-16T21:22:21.298Z,12.10
2022-08-16T21:24:49.272Z,15.80
2022-08-16T21:27:22.380Z,11.50
2022-08-16T21:29:52.535Z,13.60
2022-08-16T21:32:34.896Z,12.40
2022-08-16T21:35:10.395Z,11.60
2022-08-16T21:37:38.576Z,13.70
2022-08-16T21:40:09.086Z,15.60
2022-08-16T21:42:39.637Z,12.10
2022-08-16T21:45:09.030Z,11.20
2022-08-16T21:47:35.807Z,13.10
2022-08-16T21:50:02.568Z,13.00
2022-08-16T21:52:29.566Z,11.30
2022-08-16T21:54:58.171Z,12.90
2022-08-16T21:57:25.888Z,10.60
2022-08-16T21:59:55.275Z,12.20
2022-08-16T22:02:25.607Z,12.60
2022-08-16T22:04:52.454Z,13.90
2022-08-16T22:07:20.066Z,13.20
2022-08-16T22:09:50.316Z,11.90
2022-08-16T22:12:24.267Z,12.60
2022-08-16T22:14:51.537Z,12.10
2022-08-16T22:17:18.443Z,10.30
2022-08-16T22:19:46.573Z,13.80
2022-08-16T22:22:14.216Z,12.00
2022-08-16T22:24:41.526Z,12.10
2022-08-16T22:27:08.358Z,10.80
2022-08-16T22:29:35.203Z,13.60
2022-08-16T22:32:06.964Z,9.50
2022-08-16T22:34:34.444Z,12.10
2022-08-16T22:37:01.306Z,12.60
2022-08-16T22:39:28.237Z,11.60
2022-08-16T22:41:55.363Z,13.10
2022-08-16T22:44:22.457Z,11.70
2022-08-16T22:46:49.465Z,9.50
2022-08-16T22:49:16.333Z,11.00
2022-08-16T22:51:43.282Z,10.90
2022-08-16T22:54:48.276Z,12.50
2022-08-16T22:56:57.779Z,11.30
2022-08-16T22:59:25.316Z,10.10
2022-08-16T23:01:52.749Z,10.20
2022-08-16T23:04:19.885Z,9.40
2022-08-16T23:06:46.691Z,9.70
2022-08-16T23:09:13.482Z,11.30
2022-08-16T23:11:40.570Z,13.20
2022-08-16T23:14:07.555Z,10.40
2022-08-16T23:16:35.092Z,10.70
2022-08-16T23:19:12.304Z,10.50
2022-08-16T23:21:44.395Z,12.40
2022-08-16T23:24:12.902Z,10.30
2022-08-16T23:26:47.526Z,9.60
2022-08-16T23:29:25.465Z,9.50
2022-08-16T23:31:58.882Z,10.70
2022-08-16T23:34:28.530Z,12.90
2022-08-16T23:36:56.970Z,12.20
2022-08-16T23:39:24.394Z,9.90
2022-08-16T23:41:51.989Z,10.40
2022-08-16T23:44:56.665Z,11.90
2022-08-16T23:47:06.327Z,10.60
2022-08-16T23:49:58.240Z,10.30
2022-08-16T23:52:42.320Z,9.80
2022-08-16T23:55:09.321Z,12.00
2022-08-16T23:57:36.114Z,12.90
